Time;durP1;ratioP1;P1;durP2;ratioP2;P2;SDS_P1;SDS_P2;PMS_P1;PMS_P2;Temp;Humidity;BMP_temperature;BMP_pressure;BME280_temperature;BME280_humidity;BME280_pressure;Samples;Min_cycle;Max_cycle;Signal;HPM_P1;HPM_P2
2022/11/24 00:31:49;;;;;;;33.80;12.20;;;6.80;99.90;;;;;;5943312;24;20092;-88
2022/11/24 00:34:35;;;;;;;;;;;;;;;;;;;;;
2022/11/24 00:38:26;;;;;;;33.03;11.93;;;6.70;99.90;;;;;;6049207;23;20358;-86
2022/11/24 00:48:41;;;;;;;39.08;11.77;;;6.60;99.90;;;;;;6121040;22;20031;-87
2022/11/24 00:51:58;;;;;;;33.58;11.20;;;6.90;99.90;;;;;;6236537;22;20062;-88
2022/11/24 00:58:56;;;;;;;;;;;;;;;;;;;;;
2022/11/24 01:04:54;;;;;;;26.60;10.88;;;6.50;99.90;;;;;;6234248;22;20107;-87
2022/11/24 01:11:21;;;;;;;;;;;;;;;;;;;;;
2022/11/24 01:14:51;;;;;;;34.55;10.63;;;6.50;99.90;;;;;;6269515;22;20016;-87
2022/11/24 01:17:51;;;;;;;34.72;10.02;;;6.40;99.90;;;;;;6268251;22;20016;-87
2022/11/24 01:27:48;;;;;;;45.95;10.25;;;5.90;99.90;;;;;;6216881;22;20473;-88
2022/11/24 01:31:13;;;;;;;30.67;10.40;;;7.00;99.90;;;;;;6248464;22;20524;-87
2022/11/24 01:37:29;;;;;;;37.13;9.75;;;6.20;99.90;;;;;;6198895;22;20023;-87
2022/11/24 01:41:21;;;;;;;33.63;8.48;;;6.90;99.90;;;;;;6239524;22;20026;-87
2022/11/24 01:57:48;;;;;;;26.90;7.85;;;6.20;99.90;;;;;;6167757;22;20037;-87
2022/11/24 02:00:57;;;;;;;36.47;8.82;;;6.30;99.90;;;;;;6249261;22;20057;-88
2022/11/24 02:11:34;;;;;;;38.10;8.40;;;6.50;99.90;;;;;;6169950;22;20382;-88
2022/11/24 02:14:51;;;;;;;33.28;7.30;;;6.40;99.90;;;;;;6126381;22;20055;-88
2022/11/24 02:43:51;;;;;;;;;;;;;;;;;;;;;
2022/11/24 02:47:28;;;;;;;33.30;6.05;;;6.70;99.90;;;;;;6189624;22;20023;-87
2022/11/24 02:54:11;;;;;;;;;;;;;;;;;;;;;
2022/11/24 03:04:20;;;;;;;35.30;6.03;;;6.40;99.90;;;;;;6021977;22;20038;-87
2022/11/24 03:10:57;;;;;;;31.38;5.13;;;6.40;99.90;;;;;;6147005;22;20059;-88
2022/11/24 03:17:36;;;;;;;36.05;5.72;;;6.40;99.90;;;;;;6145938;22;20024;-87
2022/11/24 03:21:35;;;;;;;;;;;;;;;;;;;;;
2022/11/24 03:24:39;;;;;;;31.88;5.20;;;6.40;99.90;;;;;;6129428;22;20174;-88
2022/11/24 03:32:23;;;;;;;;;;;;;;;;;;;;;
2022/11/24 03:42:47;;;;;;;31.17;5.45;;;6.50;99.90;;;;;;6056346;22;20322;-88
2022/11/24 03:45:26;;;;;;;26.35;5.35;;;6.60;99.90;;;;;;6164977;22;20026;-88
2022/11/24 03:48:25;;;;;;;;;;;;;;;;;;;;;
2022/11/24 03:51:25;;;;;;;26.05;4.53;;;6.50;99.90;;;;;;6240715;22;20470;-89
2022/11/24 03:53:53;;;;;;;29.48;5.20;;;6.00;99.90;;;;;;6242014;22;20522;-87
2022/11/24 03:59:47;;;;;;;28.30;5.75;;;6.60;99.90;;;;;;6149446;22;20028;-87
2022/11/24 04:02:25;;;;;;;;;;;;;;;;;;;;;
2022/11/24 04:06:09;;;;;;;;;;;;;;;;;;;;;
2022/11/24 04:09:25;;;;;;;30.50;5.65;;;6.70;99.90;;;;;;6234384;22;20024;-87
2022/11/24 04:15:45;;;;;;;32.42;4.57;;;6.70;99.90;;;;;;6243662;22;20039;-88
2022/11/24 04:18:45;;;;;;;28.85;4.53;;;7.40;99.90;;;;;;6148475;22;20030;-88
2022/11/24 04:21:53;;;;;;;;;;;;;;;;;;;;;
2022/11/24 04:25:18;;;;;;;30.90;4.53;;;6.50;99.90;;;;;;6195624;22;20454;-88
2022/11/24 04:32:20;;;;;;;;;;;;;;;;;;;;;
2022/11/24 04:38:34;;;;;;;32.55;5.93;;;6.50;99.90;;;;;;6200719;22;20111;-88
2022/11/24 04:41:56;;;;;;;31.48;5.05;;;6.30;99.90;;;;;;6163493;22;20435;-88
2022/11/24 04:48:22;;;;;;;;;;;;;;;;;;;;;
2022/11/24 04:54:48;;;;;;;;;;;;;;;;;;;;;
2022/11/24 04:57:46;;;;;;;32.50;5.00;;;6.10;99.90;;;;;;6301133;22;20021;-87
2022/11/24 05:01:49;;;;;;;23.02;4.25;;;6.20;99.90;;;;;;6276601;22;20014;-87
2022/11/24 05:07:03;;;;;;;27.40;4.32;;;6.50;99.90;;;;;;6249254;22;20030;-87
2022/11/24 05:09:41;;;;;;;;;;;;;;;;;;;;;
2022/11/24 05:12:23;;;;;;;;;;;;;;;;;;;;;
2022/11/24 05:15:04;;;;;;;;;;;;;;;;;;;;;
2022/11/24 05:17:47;;;;;;;;;;;;;;;;;;;;;
2022/11/24 05:27:54;;;;;;;20.92;3.85;;;5.80;99.90;;;;;;6276417;22;20027;-89
2022/11/24 05:30:53;;;;;;;29.93;4.40;;;5.60;99.90;;;;;;6168545;22;20379;-88
2022/11/24 05:34:13;;;;;;;33.20;4.40;;;5.60;99.90;;;;;;6145315;22;20184;-87
2022/11/24 05:53:43;;;;;;;30.77;4.70;;;5.80;99.90;;;;;;6104569;22;20114;-88
2022/11/24 05:56:39;;;;;;;22.13;4.80;;;4.90;99.90;;;;;;6243571;22;20400;-88
2022/11/24 05:59:04;;;;;;;26.58;3.50;;;5.50;99.90;;;;;;6217762;22;20090;-87
2022/11/24 06:01:30;;;;;;;33.90;4.80;;;5.90;99.90;;;;;;6215640;22;20054;-87
2022/11/24 06:03:56;;;;;;;26.20;4.05;;;5.80;99.90;;;;;;6267901;22;20343;-87
2022/11/24 06:07:00;;;;;;;23.45;4.38;;;5.90;99.90;;;;;;6267948;22;20023;-88
2022/11/24 06:13:26;;;;;;;28.45;4.25;;;6.00;99.90;;;;;;6107910;23;20026;-87
2022/11/24 06:16:51;;;;;;;;;;;;;;;;;;;;;
2022/11/24 06:20:22;;;;;;;28.67;5.47;;;5.70;99.90;;;;;;6074986;23;20029;-86
2022/11/24 06:23:19;;;;;;;30.23;4.53;;;5.90;99.90;;;;;;6008791;23;20033;-87
2022/11/24 06:26:35;;;;;;;;;;;;;;;;;;;;;
2022/11/24 06:30:09;;;;;;;27.00;4.43;;;6.00;99.90;;;;;;6230492;22;20510;-87
2022/11/24 06:32:44;;;;;;;33.53;4.13;;;5.90;99.90;;;;;;6221246;22;20023;-87
2022/11/24 06:35:15;;;;;;;26.58;3.75;;;6.00;99.90;;;;;;6243363;22;20020;-86
2022/11/24 06:37:54;;;;;;;;;;;;;;;;;;;;;
2022/11/24 06:41:09;;;;;;;;;;;;;;;;;;;;;
2022/11/24 06:44:46;;;;;;;26.92;4.70;;;5.50;99.90;;;;;;6263917;22;20016;-86
2022/11/24 06:48:37;;;;;;;23.45;3.85;;;6.00;99.90;;;;;;6179240;22;20347;-86
2022/11/24 06:52:13;;;;;;;16.50;3.20;;;5.40;99.90;;;;;;6189163;22;20016;-86
2022/11/24 07:01:04;;;;;;;25.95;4.90;;;6.40;99.90;;;;;;6192970;22;20047;-86
2022/11/24 07:04:11;;;;;;;;;;;;;;;;;;;;;
2022/11/24 07:07:08;;;;;;;;;;;;;;;;;;;;;
2022/11/24 07:13:24;;;;;;;28.73;4.43;;;5.90;99.90;;;;;;6150410;22;20020;-86
2022/11/24 07:17:08;;;;;;;;;;;;;;;;;;;;;
2022/11/24 07:22:48;;;;;;;21.77;3.78;;;5.70;99.90;;;;;;6184787;22;20062;-87
2022/11/24 07:25:16;;;;;;;25.98;5.10;;;5.80;99.90;;;;;;6271254;22;20024;-86
2022/11/24 07:31:09;;;;;;;;;;;;;;;;;;;;;
2022/11/24 07:36:58;;;;;;;24.40;4.35;;;6.20;99.90;;;;;;6223373;22;20073;-85
2022/11/24 07:39:29;;;;;;;19.15;4.18;;;6.20;99.90;;;;;;6294769;22;20012;-86
2022/11/24 07:42:18;;;;;;;;;;;;;;;;;;;;;
2022/11/24 07:45:33;;;;;;;26.88;4.53;;;5.90;99.90;;;;;;6271273;22;20024;-86
2022/11/24 07:49:15;;;;;;;;;;;;;;;;;;;;;
2022/11/24 07:51:13;;;;;;;26.80;4.03;;;5.60;99.90;;;;;;6243923;22;20344;-85
2022/11/24 07:53:59;;;;;;;23.33;4.60;;;6.00;99.90;;;;;;6295175;22;20022;-86
2022/11/24 07:59:55;;;;;;;;;;;;;;;;;;;;;
2022/11/24 08:02:24;;;;;;;23.77;3.63;;;5.70;99.90;;;;;;6294835;22;20054;-86
2022/11/24 08:05:58;;;;;;;30.42;4.47;;;5.60;99.90;;;;;;6245208;22;20024;-86
2022/11/24 08:11:34;;;;;;;24.77;4.20;;;6.10;99.90;;;;;;6290945;22;20047;-85
2022/11/24 08:21:03;;;;;;;28.70;5.65;;;6.20;99.90;;;;;;6172027;22;20023;-85
2022/11/24 08:23:46;;;;;;;27.88;4.68;;;6.20;99.90;;;;;;6248906;22;20007;-84
2022/11/24 08:26:18;;;;;;;25.85;5.57;;;6.50;99.90;;;;;;6248559;22;20023;-86
2022/11/24 08:29:17;;;;;;;;;;;;;;;;;;;;;
2022/11/24 08:32:33;;;;;;;28.50;5.38;;;6.30;99.90;;;;;;6299725;22;20435;-85
2022/11/24 08:39:25;;;;;;;22.02;4.95;;;6.30;99.90;;;;;;6245431;22;20067;-85
2022/11/24 08:42:55;;;;;;;23.25;5.50;;;6.40;99.90;;;;;;6272997;22;20030;-86
2022/11/24 08:46:22;;;;;;;;;;;;;;;;;;;;;
2022/11/24 08:52:48;;;;;;;30.83;5.85;;;6.70;99.90;;;;;;6138030;22;20396;-86
2022/11/24 08:55:31;;;;;;;;;;;;;;;;;;;;;
2022/11/24 08:58:55;;;;;;;23.83;5.75;;;6.90;99.90;;;;;;6299320;22;20144;-87
2022/11/24 09:01:44;;;;;;;21.02;5.85;;;7.10;99.90;;;;;;6048006;22;20036;-86
2022/11/24 09:04:44;;;;;;;17.38;5.03;;;7.80;99.90;;;;;;6172836;22;20080;-86
2022/11/24 09:23:45;;;;;;;20.77;5.15;;;7.80;99.90;;;;;;6274400;22;20031;-85
2022/11/24 09:26:57;;;;;;;;;;;;;;;;;;;;;
2022/11/24 09:30:35;;;;;;;19.85;5.13;;;7.80;99.90;;;;;;6294219;22;20020;-86
2022/11/24 09:41:17;;;;;;;;;;;;;;;;;;;;;
2022/11/24 09:49:25;;;;;;;20.90;5.22;;;7.60;99.90;;;;;;6222633;22;20097;-87
2022/11/24 10:12:31;;;;;;;;;;;;;;;;;;;;;
2022/11/24 10:23:25;;;;;;;13.10;2.72;;;8.30;99.90;;;;;;6066429;23;20025;-87
2022/11/24 10:33:49;;;;;;;;;;;;;;;;;;;;;
2022/11/24 10:40:32;;;;;;;;;;;;;;;;;;;;;
2022/11/24 10:43:28;;;;;;;11.52;2.45;;;9.00;99.90;;;;;;6181344;23;20095;-88
2022/11/24 10:49:26;;;;;;;14.02;2.65;;;9.60;99.90;;;;;;6126112;23;20024;-88
2022/11/24 11:07:18;;;;;;;8.50;2.08;;;8.70;99.90;;;;;;5988798;23;20537;-87
2022/11/24 11:33:30;;;;;;;;;;;;;;;;;;;;;
2022/11/24 11:37:44;;;;;;;;;;;;;;;;;;;;;
2022/11/24 11:40:29;;;;;;;16.42;2.78;;;9.10;99.90;;;;;;6145438;22;20440;-89
2022/11/24 11:43:46;;;;;;;;;;;;;;;;;;;;;
2022/11/24 11:47:56;;;;;;;11.80;2.50;;;9.10;99.90;;;;;;6197807;22;20441;-86
2022/11/24 11:50:57;;;;;;;;;;;;;;;;;;;;;
2022/11/24 12:01:31;;;;;;;;;;;;;;;;;;;;;
2022/11/24 12:10:59;;;;;;;12.27;2.67;;;9.50;99.90;;;;;;6300521;22;20038;-84
2022/11/24 13:11:43;;;;;;;;;;;9.90;99.90;;;;;;6045162;23;20427;-86
2022/11/24 13:27:51;;;;;;;;;;;;;;;;;;;;;
2022/11/24 13:31:45;;;;;;;;;;;;;;;;;;;;;
2022/11/24 13:34:47;;;;;;;20.38;2.97;;;9.90;99.90;;;;;;6104768;23;20131;-86
2022/11/24 13:41:40;;;;;;;14.82;2.75;;;10.10;99.90;;;;;;6281085;22;20023;-87
2022/11/24 14:00:32;;;;;;;;;;;;;;;;;;;;;
2022/11/24 14:05:08;;;;;;;19.50;2.75;;;9.70;99.90;;;;;;6272924;22;20098;-87
2022/11/24 14:21:40;;;;;;;19.33;2.65;;;9.50;99.90;;;;;;6216030;22;20023;-86
2022/11/24 14:31:56;;;;;;;17.85;3.17;;;9.60;99.90;;;;;;6272145;22;20356;-86
2022/11/24 14:35:09;;;;;;;21.88;4.22;;;9.30;99.90;;;;;;6199330;22;20015;-85
2022/11/24 14:39:21;;;;;;;17.25;2.85;;;9.30;99.90;;;;;;6233526;22;20343;-86
2022/11/24 14:52:45;;;;;;;;;;;8.90;99.90;;;;;;6269887;22;20313;-86
2022/11/24 15:20:41;;;;;;;;;;;;;;;;;;;;;
2022/11/24 15:24:32;;;;;;;22.90;4.00;;;8.30;99.90;;;;;;6264551;22;20015;-85
2022/11/24 15:28:02;;;;;;;24.85;3.78;;;8.40;99.90;;;;;;6182175;22;20051;-86
2022/11/24 15:30:40;;;;;;;23.55;3.85;;;8.10;99.90;;;;;;6231284;22;20027;-85
2022/11/24 15:36:32;;;;;;;19.80;3.53;;;7.90;99.90;;;;;;6187429;22;20027;-84
2022/11/24 15:43:38;;;;;;;;;;;;;;;;;;;;;
2022/11/24 15:47:04;;;;;;;19.52;3.13;;;7.70;99.90;;;;;;6223876;22;20119;-85
2022/11/24 15:50:03;;;;;;;20.45;3.30;;;7.60;99.90;;;;;;6269425;22;20024;-85
2022/11/24 15:56:25;;;;;;;23.00;3.10;;;7.40;99.90;;;;;;6269746;22;20020;-85
2022/11/24 16:02:30;;;;;;;23.90;4.35;;;7.20;99.90;;;;;;6184081;22;20016;-86
2022/11/24 16:05:50;;;;;;;25.95;4.82;;;7.20;99.90;;;;;;6222336;22;20099;-86
2022/11/24 16:09:09;;;;;;;27.70;5.07;;;6.90;99.90;;;;;;6246225;22;20058;-85
2022/11/24 16:12:00;;;;;;;21.55;4.65;;;6.50;99.90;;;;;;6270117;22;20465;-85
2022/11/24 16:15:03;;;;;;;22.25;4.20;;;7.60;99.90;;;;;;6268333;22;20023;-84
2022/11/24 16:21:52;;;;;;;21.70;5.10;;;7.20;99.90;;;;;;6127275;22;20113;-86
2022/11/24 16:24:18;;;;;;;23.75;5.50;;;6.90;99.90;;;;;;6212650;22;20077;-86
2022/11/24 16:26:49;;;;;;;26.42;5.45;;;7.40;99.90;;;;;;6268730;22;20102;-89
2022/11/24 16:37:27;;;;;;;26.35;5.35;;;6.70;99.90;;;;;;6182838;22;20121;-87
2022/11/24 16:41:03;;;;;;;;;;;;;;;;;;;;;
2022/11/24 16:48:15;;;;;;;34.70;12.73;;;6.60;99.90;;;;;;6204658;22;20027;-87
2022/11/24 16:59:48;;;;;;;30.10;5.90;;;6.60;99.90;;;;;;6271240;22;20065;-86
2022/11/24 17:06:57;;;;;;;21.73;5.80;;;6.40;99.90;;;;;;6162331;22;20470;-86
2022/11/24 17:09:41;;;;;;;31.75;6.32;;;6.30;99.90;;;;;;6159339;22;20077;-86
2022/11/24 17:12:15;;;;;;;31.80;6.65;;;6.90;99.90;;;;;;6245203;22;20019;-85
2022/11/24 17:14:51;;;;;;;34.35;6.65;;;6.40;99.90;;;;;;6272361;22;20451;-85
2022/11/24 17:17:19;;;;;;;23.52;6.28;;;6.10;99.90;;;;;;6242656;22;20031;-85
2022/11/24 17:23:54;;;;;;;23.30;6.03;;;6.60;99.90;;;;;;6187894;22;20028;-86
2022/11/24 17:26:24;;;;;;;27.08;7.25;;;5.80;99.90;;;;;;6189557;22;20015;-85
2022/11/24 17:28:55;;;;;;;34.03;6.95;;;6.30;99.90;;;;;;6295927;22;20016;-85
2022/11/24 17:31:41;;;;;;;29.95;7.35;;;6.20;99.90;;;;;;6240920;22;20012;-85
2022/11/24 17:34:12;;;;;;;28.38;7.10;;;5.80;99.90;;;;;;6266709;22;20026;-86
2022/11/24 17:36:40;;;;;;;25.70;7.30;;;6.00;99.90;;;;;;6243014;22;20112;-86
2022/11/24 17:39:19;;;;;;;;;;;;;;;;;;;;;
2022/11/24 17:42:03;;;;;;;35.67;6.78;;;6.20;99.90;;;;;;6268971;22;20458;-85
2022/11/24 17:44:52;;;;;;;28.77;6.75;;;6.10;99.90;;;;;;6226279;22;20015;-86
2022/11/24 17:47:40;;;;;;;22.83;6.57;;;6.10;99.90;;;;;;6255255;22;20111;-84
2022/11/24 17:50:10;;;;;;;32.58;6.15;;;6.10;99.90;;;;;;6295653;22;20011;-84
2022/11/24 18:01:01;;;;;;;23.70;6.35;;;6.00;99.90;;;;;;6270517;22;20114;-87
2022/11/24 18:04:16;;;;;;;22.30;5.85;;;6.10;99.90;;;;;;6231788;22;20018;-87
2022/11/24 18:06:44;;;;;;;38.65;6.57;;;6.10;99.90;;;;;;6242800;22;20024;-87
2022/11/24 18:09:56;;;;;;;33.08;5.88;;;6.10;99.90;;;;;;6243055;22;20062;-86
2022/11/24 18:12:52;;;;;;;28.15;5.78;;;6.00;99.90;;;;;;6267083;22;20030;-85
2022/11/24 18:15:24;;;;;;;34.38;6.65;;;6.00;99.90;;;;;;6243603;22;20032;-86
2022/11/24 18:18:22;;;;;;;30.55;6.13;;;6.00;99.90;;;;;;6294529;22;20015;-86
2022/11/24 18:20:58;;;;;;;37.40;6.47;;;6.10;99.90;;;;;;6241771;22;20095;-87
2022/11/24 18:23:40;;;;;;;;;;;;;;;;;;;;;
2022/11/24 18:26:41;;;;;;;;;;;;;;;;;;;;;
2022/11/24 18:30:04;;;;;;;25.48;5.78;;;6.80;99.90;;;;;;6268741;22;20015;-84
2022/11/24 18:32:28;;;;;;;31.65;5.88;;;5.70;99.90;;;;;;6252637;22;20032;-85
2022/11/24 18:35:49;;;;;;;;;;;;;;;;;;;;;
2022/11/24 18:45:13;;;;;;;26.65;5.97;;;6.00;99.90;;;;;;6263147;22;20038;-87
2022/11/24 18:48:21;;;;;;;30.35;5.13;;;6.20;99.90;;;;;;6208370;22;20074;-86
2022/11/24 18:51:46;;;;;;;34.08;5.30;;;6.00;99.90;;;;;;6153874;22;20019;-89
2022/11/24 18:59:54;;;;;;;;;;;;;;;;;;;;;
2022/11/24 19:17:36;;;;;;;33.88;6.50;;;5.40;99.90;;;;;;6162295;22;20066;-86
2022/11/24 19:20:28;;;;;;;31.85;5.63;;;5.90;99.90;;;;;;6149110;22;20020;-88
2022/11/24 20:10:59;;;;;;;;;;;;;;;;;;;;;
2022/11/24 20:14:14;;;;;;;;;;;;;;;;;;;;;
2022/11/24 20:25:14;;;;;;;22.30;4.57;;;5.80;99.90;;;;;;6036711;23;20045;-88
2022/11/24 20:27:43;;;;;;;29.52;4.97;;;6.30;99.90;;;;;;6003197;23;20466;-88
2022/11/24 20:31:53;;;;;;;31.63;5.45;;;6.20;99.90;;;;;;6232774;22;20471;-91
2022/11/24 20:34:16;;;;;;;23.98;4.80;;;6.20;99.90;;;;;;6220874;22;20026;-90
2022/11/24 20:44:40;;;;;;;24.38;4.70;;;6.30;99.90;;;;;;6215871;22;20027;-87
2022/11/24 20:47:07;;;;;;;26.90;4.53;;;6.30;99.90;;;;;;6294376;22;20313;-85
2022/11/24 20:53:11;;;;;;;29.70;5.28;;;6.20;99.90;;;;;;6271193;22;20027;-85
2022/11/24 20:55:45;;;;;;;24.23;5.57;;;6.30;99.90;;;;;;6153489;22;20030;-86
2022/11/24 20:58:24;;;;;;;;;;;;;;;;;;;;;
2022/11/24 21:01:44;;;;;;;22.15;4.28;;;6.40;99.90;;;;;;6268694;22;20018;-87
2022/11/24 21:05:12;;;;;;;31.13;5.15;;;6.20;99.90;;;;;;6219843;22;20018;-86
2022/11/24 21:12:01;;;;;;;31.70;5.20;;;6.20;99.90;;;;;;6222982;22;20035;-84
2022/11/24 21:14:12;;;;;;;29.70;4.13;;;6.20;99.90;;;;;;6258096;22;20451;-85
2022/11/24 21:16:42;;;;;;;27.55;5.28;;;6.20;99.90;;;;;;6294618;22;20114;-86
2022/11/24 21:19:19;;;;;;;26.42;4.95;;;6.20;99.90;;;;;;6296467;22;20068;-85
2022/11/24 21:25:59;;;;;;;;;;;;;;;;;;;;;
2022/11/24 21:28:27;;;;;;;24.50;4.25;;;6.30;99.90;;;;;;6270179;22;20065;-85
2022/11/24 21:31:14;;;;;;;16.20;4.00;;;6.20;99.90;;;;;;6295140;22;20061;-85
2022/11/24 21:33:47;;;;;;;19.83;4.05;;;7.20;99.90;;;;;;6245609;22;20461;-86
2022/11/24 21:36:18;;;;;;;31.13;5.55;;;6.20;99.90;;;;;;6244075;22;20019;-85
2022/11/24 21:39:05;;;;;;;24.08;4.40;;;6.50;99.90;;;;;;6296582;22;20016;-86
2022/11/24 21:41:42;;;;;;;33.35;5.05;;;6.30;99.90;;;;;;6296205;22;20348;-86
2022/11/24 21:45:01;;;;;;;35.60;5.25;;;6.30;99.90;;;;;;6244028;22;20454;-86
2022/11/24 21:47:04;;;;;;;25.90;4.70;;;6.30;99.90;;;;;;6252243;22;20027;-85
2022/11/24 21:49:30;;;;;;;22.40;4.15;;;6.20;99.90;;;;;;6298483;22;20086;-84
2022/11/24 21:51:58;;;;;;;29.95;4.68;;;6.30;99.90;;;;;;6273180;22;20107;-84
2022/11/24 21:54:26;;;;;;;20.50;4.53;;;7.00;99.90;;;;;;6248200;22;20392;-85
2022/11/24 21:56:52;;;;;;;21.48;4.20;;;7.00;99.90;;;;;;6298669;22;20015;-85
2022/11/24 21:59:20;;;;;;;23.42;4.60;;;6.40;99.90;;;;;;6299698;22;20099;-85
2022/11/24 22:01:46;;;;;;;23.30;4.18;;;6.20;99.90;;;;;;6272862;22;20015;-85
2022/11/24 22:04:14;;;;;;;22.50;4.40;;;7.10;99.90;;;;;;6298215;22;20030;-85
2022/11/24 22:06:50;;;;;;;;;;;;;;;;;;;;;
2022/11/24 22:09:25;;;;;;;24.50;3.90;;;6.20;99.90;;;;;;6273691;22;20023;-85
2022/11/24 22:11:59;;;;;;;20.05;4.03;;;6.50;99.90;;;;;;6298661;22;20017;-85
2022/11/24 22:14:30;;;;;;;24.90;5.68;;;6.10;99.90;;;;;;6248742;22;20026;-86
2022/11/24 22:16:55;;;;;;;23.67;3.67;;;5.80;99.90;;;;;;6247469;22;20019;-85
2022/11/24 22:19:21;;;;;;;26.17;4.47;;;6.10;99.90;;;;;;6247459;22;20026;-86
2022/11/24 22:21:47;;;;;;;25.58;4.35;;;6.10;99.90;;;;;;6247668;22;20076;-86
2022/11/24 22:24:13;;;;;;;24.08;4.15;;;6.10;99.90;;;;;;6299678;22;20030;-85
2022/11/24 22:26:41;;;;;;;18.67;4.07;;;6.10;99.90;;;;;;6297793;22;20320;-86
2022/11/24 22:29:07;;;;;;;25.58;4.13;;;6.80;99.90;;;;;;6273522;22;20333;-86
2022/11/24 22:31:33;;;;;;;18.73;3.85;;;6.00;99.90;;;;;;6247718;22;20023;-86
2022/11/24 22:33:59;;;;;;;22.02;4.03;;;6.00;99.90;;;;;;6298353;22;20098;-85
2022/11/24 22:36:43;;;;;;;18.58;3.80;;;6.00;99.90;;;;;;6299084;22;20374;-85
2022/11/24 22:39:16;;;;;;;22.73;3.85;;;6.20;99.90;;;;;;6247470;22;20018;-86
2022/11/24 22:41:42;;;;;;;21.63;3.97;;;6.40;99.90;;;;;;6299276;22;20084;-86
2022/11/24 22:44:10;;;;;;;25.40;4.35;;;6.00;99.90;;;;;;6273864;22;20102;-85
2022/11/24 22:46:35;;;;;;;22.67;4.15;;;6.00;99.90;;;;;;6299522;22;20374;-85
2022/11/24 22:49:01;;;;;;;19.15;4.15;;;6.00;99.90;;;;;;6301857;22;20026;-85
2022/11/24 22:51:30;;;;;;;22.13;3.42;;;6.10;99.90;;;;;;6275326;22;20077;-85
2022/11/24 22:53:58;;;;;;;22.15;3.17;;;6.10;99.90;;;;;;6301416;22;20046;-85
2022/11/24 22:56:33;;;;;;;19.20;4.28;;;6.40;99.90;;;;;;6275675;22;20015;-86
2022/11/24 22:59:00;;;;;;;21.23;3.75;;;6.90;99.90;;;;;;6301939;22;20317;-86
2022/11/24 23:01:29;;;;;;;24.77;3.53;;;6.30;99.90;;;;;;6273512;22;20069;-86
2022/11/24 23:03:57;;;;;;;21.90;3.97;;;6.40;99.90;;;;;;6276423;22;20144;-86
2022/11/24 23:06:27;;;;;;;17.52;3.70;;;6.50;99.90;;;;;;6275364;22;20057;-86
2022/11/24 23:09:01;;;;;;;20.05;3.70;;;6.50;99.90;;;;;;6275745;22;20027;-85
2022/11/24 23:11:29;;;;;;;24.88;4.22;;;6.70;99.90;;;;;;6275369;22;20046;-85
2022/11/24 23:13:59;;;;;;;18.38;3.65;;;6.70;99.90;;;;;;6275380;22;20029;-86
2022/11/24 23:16:25;;;;;;;19.55;3.15;;;7.30;99.90;;;;;;6274080;22;20051;-85
2022/11/24 23:18:51;;;;;;;21.25;3.58;;;6.70;99.90;;;;;;6250138;22;20448;-84
2022/11/24 23:21:20;;;;;;;18.42;3.88;;;7.00;99.90;;;;;;6248749;22;20029;-85
2022/11/24 23:23:47;;;;;;;18.80;4.45;;;7.70;99.90;;;;;;6301332;22;20342;-85
2022/11/24 23:26:33;;;;;;;22.65;3.83;;;7.70;99.90;;;;;;6275667;22;20019;-86
2022/11/24 23:29:21;;;;;;;;;;;;;;;;;;;;;
2022/11/24 23:31:58;;;;;;;16.30;3.83;;;7.00;99.90;;;;;;6275259;22;20038;-85
2022/11/24 23:34:49;;;;;;;13.88;3.00;;;6.90;99.90;;;;;;6301216;22;20026;-85
2022/11/24 23:37:17;;;;;;;28.40;4.32;;;7.60;99.90;;;;;;6248899;22;20081;-85
2022/11/24 23:39:48;;;;;;;20.20;3.30;;;7.10;99.90;;;;;;6301029;22;20023;-86
2022/11/24 23:42:16;;;;;;;26.08;3.85;;;6.90;99.90;;;;;;6248344;22;20023;-85
2022/11/24 23:44:44;;;;;;;20.88;3.35;;;6.90;99.90;;;;;;6301077;22;20054;-85
2022/11/24 23:47:10;;;;;;;24.65;4.60;;;7.50;99.90;;;;;;6248637;22;20015;-85
2022/11/24 23:49:35;;;;;;;20.63;3.47;;;6.90;99.90;;;;;;6248334;22;20098;-85
2022/11/24 23:52:13;;;;;;;18.02;2.92;;;6.90;99.90;;;;;;6301100;22;20015;-86
2022/11/24 23:54:41;;;;;;;24.30;4.32;;;7.00;99.90;;;;;;6249987;22;20030;-87
2022/11/24 23:57:09;;;;;;;24.00;4.38;;;7.00;99.90;;;;;;6247459;22;20084;-86
2022/11/24 23:59:47;;;;;;;;;;;;;;;;;;;;;
